createdAt,value
2023-05-24T00:03:56.458Z,38.7
2023-05-24T00:09:33.205Z,38.7
2023-05-24T00:15:24.661Z,38.6
2023-05-24T00:21:03.040Z,38.6
2023-05-24T00:26:55.012Z,38.6
2023-05-24T00:32:47.315Z,38.5
2023-05-24T00:38:23.540Z,38.4
2023-05-24T00:44:15.531Z,38.4
2023-05-24T00:50:07.453Z,38.4
2023-05-24T00:56:00.460Z,38.4
2023-05-24T01:01:37.491Z,38.4
2023-05-24T01:07:30.573Z,38.3
2023-05-24T01:13:24.910Z,38.3
2023-05-24T01:19:16.152Z,38.3
2023-05-24T01:25:07.927Z,38.2
2023-05-24T01:30:59.573Z,38.2
2023-05-24T01:36:36.279Z,38.1
2023-05-24T01:42:27.922Z,38.1
2023-05-24T01:48:04.356Z,38.1
2023-05-24T01:53:55.971Z,38.1
2023-05-24T01:59:47.538Z,38.1
2023-05-24T02:05:39.884Z,38
2023-05-24T02:11:15.647Z,37.9
2023-05-24T02:17:07.019Z,37.9
2023-05-24T02:22:43.793Z,37.9
2023-05-24T02:28:35.011Z,37.9
2023-05-24T02:34:26.843Z,37.8
2023-05-24T02:40:17.874Z,37.8
2023-05-24T02:46:09.432Z,37.7
2023-05-24T02:52:01.495Z,37.7
2023-05-24T02:57:38.365Z,37.7
2023-05-24T03:03:30.467Z,37.6
2023-05-24T03:09:22.656Z,37.6
2023-05-24T03:15:15.924Z,37.6
2023-05-24T03:21:07.659Z,37.5
2023-05-24T03:26:59.446Z,37.5
2023-05-24T03:32:50.895Z,37.4
2023-05-24T03:38:41.790Z,37.4
2023-05-24T03:44:34.294Z,37.4
2023-05-24T03:50:40.155Z,37.4
2023-05-24T03:56:32.291Z,37.3
2023-05-24T04:02:38.713Z,37.3
2023-05-24T04:08:15.230Z,37.3
2023-05-24T04:13:51.296Z,37.3
2023-05-24T04:19:44.695Z,37.3
2023-05-24T04:25:36.798Z,37.2
2023-05-24T04:31:28.657Z,37.1
2023-05-24T04:37:20.916Z,37.1
2023-05-24T04:43:12.706Z,37.1
2023-05-24T04:49:04.728Z,37.1
2023-05-24T04:54:56.692Z,37.1
2023-05-24T05:00:35.053Z,37
2023-05-24T05:06:27.386Z,37
2023-05-24T05:12:19.904Z,36.9
2023-05-24T05:18:12.202Z,36.9
2023-05-24T05:23:49.305Z,36.9
2023-05-24T05:29:25.693Z,36.9
2023-05-24T05:35:02.374Z,36.9
2023-05-24T05:40:56.812Z,36.8
2023-05-24T05:46:33.179Z,36.8
2023-05-24T05:52:25.368Z,36.8
2023-05-24T05:58:16.563Z,36.4
2023-05-24T06:04:09.063Z,37.3
2023-05-24T06:10:01.820Z,36.9
2023-05-24T06:15:55.249Z,37.2
2023-05-24T06:21:58.049Z,37.4
2023-05-24T06:27:49.024Z,40.6
2023-05-24T06:33:42.775Z,43.9
2023-05-24T06:39:40.298Z,45.2
2023-05-24T06:45:31.091Z,46.1
2023-05-24T06:51:23.728Z,46.9
2023-05-24T06:57:18.242Z,47.3
2023-05-24T07:03:10.731Z,48.2
2023-05-24T07:09:02.279Z,49
2023-05-24T07:14:39.004Z,49.7
2023-05-24T07:20:30.730Z,50.4
2023-05-24T07:26:25.381Z,51.1
2023-05-24T07:37:54.971Z,52.5
2023-05-24T07:43:31.364Z,53.2
2023-05-24T07:49:08.617Z,53.9
2023-05-24T07:55:00.308Z,54.5
2023-05-24T08:00:52.354Z,53.4
2023-05-24T08:06:29.555Z,50.8
2023-05-24T08:12:20.872Z,51.2
2023-05-24T08:17:57.877Z,52.3
2023-05-24T08:23:50.266Z,53.4
2023-05-24T08:29:45.431Z,54.5
2023-05-24T08:35:37.562Z,55.6
2023-05-24T08:41:29.586Z,56.6
2023-05-24T08:47:18.559Z,57.3
2023-05-24T08:53:12.834Z,58
2023-05-24T08:59:05.171Z,58.7
2023-05-24T09:04:27.816Z,59.3
2023-05-24T09:09:49.835Z,59.7
2023-05-24T09:16:07.421Z,60.2
2023-05-24T09:22:03.126Z,60.6
2023-05-24T09:27:43.126Z,60.9
2023-05-24T09:33:20.976Z,61.4
2023-05-24T09:39:12.532Z,61.9
2023-05-24T09:44:49.722Z,61.9
2023-05-24T09:50:26.669Z,62.3
2023-05-24T09:56:04.697Z,62.5
2023-05-24T10:01:57.574Z,62.2
2023-05-24T10:08:04.709Z,62.9
2023-05-24T10:13:57.276Z,63
2023-05-24T10:43:09.246Z,63.3
2023-05-24T10:49:01.274Z,64.4
2023-05-24T10:54:41.285Z,64.7
2023-05-24T10:59:53.109Z,64.6
2023-05-24T11:05:36.707Z,64.8
2023-05-24T11:10:27.047Z,64.9
2023-05-24T11:15:48.509Z,65.4
2023-05-24T11:21:12.772Z,65.3
2023-05-24T11:26:33.494Z,65.1
2023-05-24T11:32:15.612Z,65
2023-05-24T11:38:02.838Z,65.3
2023-05-24T11:43:39.286Z,65.2
2023-05-24T11:49:16.847Z,65.1
2023-05-24T11:55:03.946Z,65.1
2023-05-24T12:00:40.453Z,65.1
2023-05-24T12:06:22.428Z,65.3
2023-05-24T12:12:01.383Z,65.4
2023-05-24T12:17:36.462Z,65.6
2023-05-24T12:23:46.541Z,65.8
2023-05-24T12:29:23.801Z,65.9
2023-05-24T12:35:01.610Z,65.8
2023-05-24T12:40:38.123Z,65.6
2023-05-24T12:46:48.869Z,65.3
2023-05-24T12:52:24.799Z,65.3
2023-05-24T12:58:02.601Z,65.3
2023-05-24T13:03:39.696Z,65.1
2023-05-24T13:09:01.297Z,64.5
2023-05-24T13:14:22.813Z,62.6
2023-05-24T13:20:00.308Z,63.1
2023-05-24T13:25:51.737Z,61.1
2023-05-24T13:31:57.027Z,59.8
2023-05-24T13:37:20.695Z,57.6
2023-05-24T13:42:56.384Z,55
2023-05-24T13:48:30.317Z,53.9
2023-05-24T13:53:53.562Z,51.8
2023-05-24T13:59:18.713Z,50.8
2023-05-24T14:04:40.129Z,49.9
2023-05-24T14:10:34.386Z,49.3
2023-05-24T14:17:29.190Z,48.8
2023-05-24T14:22:50.853Z,46.9
2023-05-24T14:28:12.238Z,37.9
2023-05-24T14:33:33.791Z,35.3
2023-05-24T14:38:54.640Z,35.5
2023-05-24T14:50:10.922Z,35.4
2023-05-24T14:55:46.836Z,35.9
2023-05-24T15:01:26.956Z,36.3
2023-05-24T15:07:03.255Z,36.6
2023-05-24T15:12:40.130Z,36.7
2023-05-24T15:18:16.828Z,36.8
2023-05-24T15:23:54.216Z,36.8
2023-05-24T15:29:32.170Z,36.6
2023-05-24T15:35:11.820Z,36.5
2023-05-24T15:40:46.638Z,36.3
2023-05-24T15:46:22.842Z,36.3
2023-05-24T15:53:25.627Z,36.1
2023-05-24T15:59:15.834Z,35.8
2023-05-24T16:05:08.073Z,35.6
2023-05-24T16:10:44.691Z,35.3
2023-05-24T16:16:23.137Z,35
2023-05-24T16:22:17.814Z,34.7
2023-05-24T16:28:11.894Z,34.4
2023-05-24T16:34:05.994Z,34.2
2023-05-24T16:40:15.527Z,33.9
2023-05-24T16:45:52.130Z,33.8
2023-05-24T16:51:44.017Z,33.7
2023-05-24T16:57:35.462Z,33.6
2023-05-24T17:03:30.849Z,33.4
2023-05-24T17:09:25.859Z,33.3
2023-05-24T17:15:17.164Z,33.1
2023-05-24T17:21:09.920Z,32.8
2023-05-24T17:26:45.770Z,32.6
2023-05-24T17:32:41.580Z,32.3
2023-05-24T17:38:33.217Z,32
2023-05-24T17:44:24.018Z,31.7
2023-05-24T17:50:04.774Z,31.4
2023-05-24T17:56:00.301Z,31.2
2023-05-24T18:01:51.852Z,30.9
2023-05-24T18:07:46.984Z,30.6
2023-05-24T18:13:40.304Z,30.4
2023-05-24T18:19:32.891Z,30.1
2023-05-24T18:25:24.468Z,29.9
2023-05-24T18:31:22.029Z,29.6
2023-05-24T18:37:16.900Z,29.4
2023-05-24T18:43:08.946Z,29.1
2023-05-24T18:48:46.920Z,28.9
2023-05-24T19:00:01.675Z,28.5
2023-05-24T19:05:55.820Z,28.3
2023-05-24T19:11:31.761Z,28.1
2023-05-24T19:17:24.571Z,27.9
2023-05-24T19:23:17.828Z,27.8
2023-05-24T19:35:05.118Z,27.6
2023-05-24T19:40:26.585Z,27.8
2023-05-24T19:46:18.127Z,27.9
2023-05-24T19:52:11.387Z,28
2023-05-24T20:03:26.476Z,28.2
2023-05-24T20:09:03.286Z,28.3
2023-05-24T20:14:40.195Z,28.3
2023-05-24T20:20:01.660Z,28.4
2023-05-24T20:25:37.681Z,28.4
2023-05-24T20:31:27.356Z,28.5
2023-05-24T20:37:04.082Z,28.5
2023-05-24T20:42:40.003Z,28.6
2023-05-24T20:48:19.639Z,28.6
2023-05-24T20:53:55.866Z,28.6
2023-05-24T20:59:32.677Z,28.6
2023-05-24T21:05:12.237Z,28.7
2023-05-24T21:10:49.388Z,28.7
2023-05-24T21:21:32.036Z,28.8
2023-05-24T21:26:52.733Z,28.8
2023-05-24T21:32:29.188Z,28.7
2023-05-24T21:38:05.645Z,28.6
2023-05-24T21:43:26.586Z,28.5
2023-05-24T21:49:18.621Z,28.4
2023-05-24T21:55:10.578Z,28.3
2023-05-24T22:01:05.304Z,28.2
2023-05-24T22:06:58.285Z,28.2
2023-05-24T22:12:50.015Z,28.1
2023-05-24T22:18:41.247Z,28.1
2023-05-24T22:24:41.256Z,28.1
2023-05-24T22:30:35.173Z,28.1
2023-05-24T22:36:11.569Z,28.1
2023-05-24T22:47:24.761Z,28
2023-05-24T22:53:15.961Z,28
